sensor_id;sensor_type;location;lat;lon;timestamp;temperature;humidity
16402;DHT22;8310;44.626;11.176;2022-08-18T00:00:14;27.00;49.00
16402;DHT22;8310;44.626;11.176;2022-08-18T00:02:42;27.00;49.00
16402;DHT22;8310;44.626;11.176;2022-08-18T00:05:10;26.90;48.90
16402;DHT22;8310;44.626;11.176;2022-08-18T00:07:38;26.90;49.00
16402;DHT22;8310;44.626;11.176;2022-08-18T00:10:07;26.90;49.00
16402;DHT22;8310;44.626;11.176;2022-08-18T00:12:38;26.90;49.00
16402;DHT22;8310;44.626;11.176;2022-08-18T00:15:11;26.90;49.10
16402;DHT22;8310;44.626;11.176;2022-08-18T00:17:39;26.80;49.00
16402;DHT22;8310;44.626;11.176;2022-08-18T00:20:10;26.80;49.10
16402;DHT22;8310;44.626;11.176;2022-08-18T00:22:38;26.80;49.10
16402;DHT22;8310;44.626;11.176;2022-08-18T00:25:07;26.80;49.10
16402;DHT22;8310;44.626;11.176;2022-08-18T00:27:37;26.70;49.10
16402;DHT22;8310;44.626;11.176;2022-08-18T00:30:09;26.70;49.10
16402;DHT22;8310;44.626;11.176;2022-08-18T00:32:39;26.70;49.20
16402;DHT22;8310;44.626;11.176;2022-08-18T00:35:10;26.60;49.20
16402;DHT22;8310;44.626;11.176;2022-08-18T00:37:39;26.60;49.20
16402;DHT22;8310;44.626;11.176;2022-08-18T00:40:10;26.60;49.20
16402;DHT22;8310;44.626;11.176;2022-08-18T00:42:44;26.60;49.30
16402;DHT22;8310;44.626;11.176;2022-08-18T00:45:16;26.60;49.30
16402;DHT22;8310;44.626;11.176;2022-08-18T00:47:43;26.60;49.30
16402;DHT22;8310;44.626;11.176;2022-08-18T00:50:15;26.60;49.30
16402;DHT22;8310;44.626;11.176;2022-08-18T00:52:53;26.50;49.30
16402;DHT22;8310;44.626;11.176;2022-08-18T00:55:23;26.50;49.40
16402;DHT22;8310;44.626;11.176;2022-08-18T00:57:56;26.50;49.40
16402;DHT22;8310;44.626;11.176;2022-08-18T01:00:26;26.50;50.00
16402;DHT22;8310;44.626;11.176;2022-08-18T01:02:58;26.50;49.50
16402;DHT22;8310;44.626;11.176;2022-08-18T01:05:30;26.50;49.30
16402;DHT22;8310;44.626;11.176;2022-08-18T01:08:00;26.40;49.20
16402;DHT22;8310;44.626;11.176;2022-08-18T01:10:32;26.30;49.20
16402;DHT22;8310;44.626;11.176;2022-08-18T01:13:01;26.30;49.30
16402;DHT22;8310;44.626;11.176;2022-08-18T01:15:29;26.30;49.40
16402;DHT22;8310;44.626;11.176;2022-08-18T01:17:57;26.30;49.40
16402;DHT22;8310;44.626;11.176;2022-08-18T01:21:11;26.20;49.40
16402;DHT22;8310;44.626;11.176;2022-08-18T01:23:59;26.30;49.60
16402;DHT22;8310;44.626;11.176;2022-08-18T01:26:29;26.20;49.60
16402;DHT22;8310;44.626;11.176;2022-08-18T01:29:03;26.30;49.70
16402;DHT22;8310;44.626;11.176;2022-08-18T01:31:36;26.30;49.70
16402;DHT22;8310;44.626;11.176;2022-08-18T01:34:07;26.20;49.70
16402;DHT22;8310;44.626;11.176;2022-08-18T01:36:37;26.20;49.60
16402;DHT22;8310;44.626;11.176;2022-08-18T01:39:08;26.20;49.60
16402;DHT22;8310;44.626;11.176;2022-08-18T01:41:36;26.20;49.70
16402;DHT22;8310;44.626;11.176;2022-08-18T01:44:04;26.20;49.70
16402;DHT22;8310;44.626;11.176;2022-08-18T01:46:34;26.20;49.70
16402;DHT22;8310;44.626;11.176;2022-08-18T01:49:03;26.20;49.80
16402;DHT22;8310;44.626;11.176;2022-08-18T01:51:31;26.10;49.80
16402;DHT22;8310;44.626;11.176;2022-08-18T01:54:00;26.10;49.90
16402;DHT22;8310;44.626;11.176;2022-08-18T01:56:30;26.10;49.90
16402;DHT22;8310;44.626;11.176;2022-08-18T01:58:57;26.10;49.80
16402;DHT22;8310;44.626;11.176;2022-08-18T02:01:25;26.10;49.80
16402;DHT22;8310;44.626;11.176;2022-08-18T02:03:57;26.10;49.90
16402;DHT22;8310;44.626;11.176;2022-08-18T02:06:25;26.10;50.00
16402;DHT22;8310;44.626;11.176;2022-08-18T02:08:54;26.10;50.00
16402;DHT22;8310;44.626;11.176;2022-08-18T02:11:21;26.10;50.00
16402;DHT22;8310;44.626;11.176;2022-08-18T02:13:51;26.10;50.10
16402;DHT22;8310;44.626;11.176;2022-08-18T02:16:18;26.10;50.10
16402;DHT22;8310;44.626;11.176;2022-08-18T02:18:47;26.10;50.10
16402;DHT22;8310;44.626;11.176;2022-08-18T02:21:17;26.20;50.20
16402;DHT22;8310;44.626;11.176;2022-08-18T02:23:47;26.20;50.20
16402;DHT22;8310;44.626;11.176;2022-08-18T02:26:16;26.20;50.30
16402;DHT22;8310;44.626;11.176;2022-08-18T02:28:45;26.20;50.30
16402;DHT22;8310;44.626;11.176;2022-08-18T02:31:17;26.10;50.20
16402;DHT22;8310;44.626;11.176;2022-08-18T02:33:45;26.10;50.20
16402;DHT22;8310;44.626;11.176;2022-08-18T02:36:14;26.00;50.20
16402;DHT22;8310;44.626;11.176;2022-08-18T02:38:42;26.00;50.30
16402;DHT22;8310;44.626;11.176;2022-08-18T02:41:12;25.80;50.30
16402;DHT22;8310;44.626;11.176;2022-08-18T02:43:41;25.70;50.30
16402;DHT22;8310;44.626;11.176;2022-08-18T02:46:08;25.60;50.20
16402;DHT22;8310;44.626;11.176;2022-08-18T02:48:38;25.50;50.10
16402;DHT22;8310;44.626;11.176;2022-08-18T02:51:08;25.50;50.20
16402;DHT22;8310;44.626;11.176;2022-08-18T02:53:37;25.40;50.20
16402;DHT22;8310;44.626;11.176;2022-08-18T02:56:07;25.40;50.30
16402;DHT22;8310;44.626;11.176;2022-08-18T02:58:55;25.40;50.20
16402;DHT22;8310;44.626;11.176;2022-08-18T03:01:25;25.40;50.30
16402;DHT22;8310;44.626;11.176;2022-08-18T03:03:56;25.30;50.20
16402;DHT22;8310;44.626;11.176;2022-08-18T03:06:26;25.30;50.30
16402;DHT22;8310;44.626;11.176;2022-08-18T03:08:54;25.30;50.30
16402;DHT22;8310;44.626;11.176;2022-08-18T03:11:24;25.30;50.30
16402;DHT22;8310;44.626;11.176;2022-08-18T03:13:52;25.30;50.30
16402;DHT22;8310;44.626;11.176;2022-08-18T03:16:21;25.20;50.30
16402;DHT22;8310;44.626;11.176;2022-08-18T03:18:50;25.20;50.30
16402;DHT22;8310;44.626;11.176;2022-08-18T03:21:22;25.10;50.30
16402;DHT22;8310;44.626;11.176;2022-08-18T03:23:52;25.10;50.40
16402;DHT22;8310;44.626;11.176;2022-08-18T03:26:21;25.20;50.50
16402;DHT22;8310;44.626;11.176;2022-08-18T03:28:50;25.20;50.50
16402;DHT22;8310;44.626;11.176;2022-08-18T03:31:20;25.20;50.60
16402;DHT22;8310;44.626;11.176;2022-08-18T03:33:49;25.20;50.60
16402;DHT22;8310;44.626;11.176;2022-08-18T03:36:20;25.20;50.60
16402;DHT22;8310;44.626;11.176;2022-08-18T03:38:49;25.20;50.60
16402;DHT22;8310;44.626;11.176;2022-08-18T03:41:19;25.20;50.70
16402;DHT22;8310;44.626;11.176;2022-08-18T03:43:48;25.20;50.70
16402;DHT22;8310;44.626;11.176;2022-08-18T03:46:18;25.20;50.80
16402;DHT22;8310;44.626;11.176;2022-08-18T03:48:47;25.30;50.90
16402;DHT22;8310;44.626;11.176;2022-08-18T03:51:18;25.30;50.90
16402;DHT22;8310;44.626;11.176;2022-08-18T03:53:48;25.30;50.90
16402;DHT22;8310;44.626;11.176;2022-08-18T03:56:18;25.30;50.90
16402;DHT22;8310;44.626;11.176;2022-08-18T03:58:48;25.30;51.00
16402;DHT22;8310;44.626;11.176;2022-08-18T04:01:17;25.30;51.00
16402;DHT22;8310;44.626;11.176;2022-08-18T04:03:48;25.30;51.00
16402;DHT22;8310;44.626;11.176;2022-08-18T04:06:16;25.30;51.00
16402;DHT22;8310;44.626;11.176;2022-08-18T04:08:44;25.30;51.30
16402;DHT22;8310;44.626;11.176;2022-08-18T04:11:14;25.30;51.00
16402;DHT22;8310;44.626;11.176;2022-08-18T04:13:41;25.30;51.00
16402;DHT22;8310;44.626;11.176;2022-08-18T04:16:09;25.30;51.00
16402;DHT22;8310;44.626;11.176;2022-08-18T04:18:37;25.30;51.00
16402;DHT22;8310;44.626;11.176;2022-08-18T04:21:07;25.20;50.80
16402;DHT22;8310;44.626;11.176;2022-08-18T04:23:36;25.10;50.70
16402;DHT22;8310;44.626;11.176;2022-08-18T04:26:05;25.00;50.70
16402;DHT22;8310;44.626;11.176;2022-08-18T04:28:34;25.00;50.60
16402;DHT22;8310;44.626;11.176;2022-08-18T04:31:06;24.90;50.70
16402;DHT22;8310;44.626;11.176;2022-08-18T04:33:34;24.80;50.80
16402;DHT22;8310;44.626;11.176;2022-08-18T04:36:07;24.80;50.70
16402;DHT22;8310;44.626;11.176;2022-08-18T04:38:35;24.70;50.70
16402;DHT22;8310;44.626;11.176;2022-08-18T04:41:03;24.60;50.70
16402;DHT22;8310;44.626;11.176;2022-08-18T04:43:31;24.60;50.70
16402;DHT22;8310;44.626;11.176;2022-08-18T04:46:01;24.50;50.80
16402;DHT22;8310;44.626;11.176;2022-08-18T04:48:29;24.50;50.90
16402;DHT22;8310;44.626;11.176;2022-08-18T04:51:09;24.50;51.00
16402;DHT22;8310;44.626;11.176;2022-08-18T04:53:37;24.50;51.10
16402;DHT22;8310;44.626;11.176;2022-08-18T04:56:17;24.50;51.10
16402;DHT22;8310;44.626;11.176;2022-08-18T04:58:48;24.50;51.20
16402;DHT22;8310;44.626;11.176;2022-08-18T05:01:20;24.50;51.20
16402;DHT22;8310;44.626;11.176;2022-08-18T05:03:48;24.50;51.20
16402;DHT22;8310;44.626;11.176;2022-08-18T05:06:16;24.50;51.30
16402;DHT22;8310;44.626;11.176;2022-08-18T05:08:46;24.50;51.50
16402;DHT22;8310;44.626;11.176;2022-08-18T05:11:15;24.60;51.60
16402;DHT22;8310;44.626;11.176;2022-08-18T05:13:42;24.60;51.50
16402;DHT22;8310;44.626;11.176;2022-08-18T05:16:10;24.60;51.50
16402;DHT22;8310;44.626;11.176;2022-08-18T05:18:39;24.60;51.50
16402;DHT22;8310;44.626;11.176;2022-08-18T05:21:08;24.60;51.60
16402;DHT22;8310;44.626;11.176;2022-08-18T05:23:40;24.60;51.50
16402;DHT22;8310;44.626;11.176;2022-08-18T05:26:09;24.60;51.50
16402;DHT22;8310;44.626;11.176;2022-08-18T05:28:37;24.60;51.60
16402;DHT22;8310;44.626;11.176;2022-08-18T05:31:06;24.60;51.60
16402;DHT22;8310;44.626;11.176;2022-08-18T05:33:35;24.50;51.60
16402;DHT22;8310;44.626;11.176;2022-08-18T05:36:16;24.50;51.70
16402;DHT22;8310;44.626;11.176;2022-08-18T05:38:58;24.60;51.80
16402;DHT22;8310;44.626;11.176;2022-08-18T05:41:32;24.60;51.90
16402;DHT22;8310;44.626;11.176;2022-08-18T05:44:01;24.60;51.90
16402;DHT22;8310;44.626;11.176;2022-08-18T05:46:37;24.70;52.00
16402;DHT22;8310;44.626;11.176;2022-08-18T05:49:07;24.70;52.10
16402;DHT22;8310;44.626;11.176;2022-08-18T05:51:40;24.80;52.10
16402;DHT22;8310;44.626;11.176;2022-08-18T05:54:09;24.80;52.20
16402;DHT22;8310;44.626;11.176;2022-08-18T05:56:57;24.80;52.30
16402;DHT22;8310;44.626;11.176;2022-08-18T05:59:30;24.90;52.30
16402;DHT22;8310;44.626;11.176;2022-08-18T06:02:03;24.90;52.30
16402;DHT22;8310;44.626;11.176;2022-08-18T06:04:40;24.90;52.30
16402;DHT22;8310;44.626;11.176;2022-08-18T06:07:13;25.00;52.40
16402;DHT22;8310;44.626;11.176;2022-08-18T06:09:46;25.00;52.40
16402;DHT22;8310;44.626;11.176;2022-08-18T06:12:21;25.00;52.40
16402;DHT22;8310;44.626;11.176;2022-08-18T06:14:50;25.00;52.50
16402;DHT22;8310;44.626;11.176;2022-08-18T06:17:34;25.00;52.40
16402;DHT22;8310;44.626;11.176;2022-08-18T06:20:14;25.00;52.50
16402;DHT22;8310;44.626;11.176;2022-08-18T06:22:53;25.00;52.50
16402;DHT22;8310;44.626;11.176;2022-08-18T06:25:29;25.00;52.50
16402;DHT22;8310;44.626;11.176;2022-08-18T06:28:06;25.00;52.50
16402;DHT22;8310;44.626;11.176;2022-08-18T06:30:45;25.00;52.60
16402;DHT22;8310;44.626;11.176;2022-08-18T06:33:24;24.90;52.60
16402;DHT22;8310;44.626;11.176;2022-08-18T06:36:00;24.90;52.60
16402;DHT22;8310;44.626;11.176;2022-08-18T06:38:49;24.80;52.60
16402;DHT22;8310;44.626;11.176;2022-08-18T06:41:20;24.80;52.70
16402;DHT22;8310;44.626;11.176;2022-08-18T06:44:04;24.80;52.70
16402;DHT22;8310;44.626;11.176;2022-08-18T06:46:40;24.80;52.70
16402;DHT22;8310;44.626;11.176;2022-08-18T06:49:10;24.80;52.70
16402;DHT22;8310;44.626;11.176;2022-08-18T06:51:38;24.80;52.80
16402;DHT22;8310;44.626;11.176;2022-08-18T06:54:26;24.80;52.80
16402;DHT22;8310;44.626;11.176;2022-08-18T06:56:55;24.80;52.80
16402;DHT22;8310;44.626;11.176;2022-08-18T06:59:26;24.80;52.80
16402;DHT22;8310;44.626;11.176;2022-08-18T07:02:10;24.80;52.80
16402;DHT22;8310;44.626;11.176;2022-08-18T07:04:56;24.80;52.80
16402;DHT22;8310;44.626;11.176;2022-08-18T07:07:31;24.80;52.90
16402;DHT22;8310;44.626;11.176;2022-08-18T07:10:02;24.80;52.90
16402;DHT22;8310;44.626;11.176;2022-08-18T07:12:29;24.80;52.90
16402;DHT22;8310;44.626;11.176;2022-08-18T07:14:59;24.80;52.90
16402;DHT22;8310;44.626;11.176;2022-08-18T07:17:29;24.80;53.00
16402;DHT22;8310;44.626;11.176;2022-08-18T07:20:05;24.80;53.00
16402;DHT22;8310;44.626;11.176;2022-08-18T07:22:52;24.70;53.00
16402;DHT22;8310;44.626;11.176;2022-08-18T07:25:26;24.70;53.10
16402;DHT22;8310;44.626;11.176;2022-08-18T07:27:55;24.80;53.10
16402;DHT22;8310;44.626;11.176;2022-08-18T07:30:30;24.80;53.10
16402;DHT22;8310;44.626;11.176;2022-08-18T07:33:04;24.80;53.70
16402;DHT22;8310;44.626;11.176;2022-08-18T07:35:38;24.80;53.20
16402;DHT22;8310;44.626;11.176;2022-08-18T07:38:10;24.80;53.20
16402;DHT22;8310;44.626;11.176;2022-08-18T07:40:48;24.80;53.20
16402;DHT22;8310;44.626;11.176;2022-08-18T07:43:21;24.90;53.40
16402;DHT22;8310;44.626;11.176;2022-08-18T07:45:55;24.90;53.40
16402;DHT22;8310;44.626;11.176;2022-08-18T07:48:30;24.90;53.50
16402;DHT22;8310;44.626;11.176;2022-08-18T07:51:04;25.00;53.50
16402;DHT22;8310;44.626;11.176;2022-08-18T07:53:44;25.00;53.50
16402;DHT22;8310;44.626;11.176;2022-08-18T07:56:18;25.10;53.70
16402;DHT22;8310;44.626;11.176;2022-08-18T07:58:52;25.10;53.60
16402;DHT22;8310;44.626;11.176;2022-08-18T08:01:28;25.10;53.60
16402;DHT22;8310;44.626;11.176;2022-08-18T08:04:05;25.10;53.50
16402;DHT22;8310;44.626;11.176;2022-08-18T08:06:40;25.10;53.50
16402;DHT22;8310;44.626;11.176;2022-08-18T08:09:15;25.10;53.50
16402;DHT22;8310;44.626;11.176;2022-08-18T08:11:54;25.10;53.50
16402;DHT22;8310;44.626;11.176;2022-08-18T08:14:34;25.10;53.40
16402;DHT22;8310;44.626;11.176;2022-08-18T08:17:09;25.10;53.50
16402;DHT22;8310;44.626;11.176;2022-08-18T08:20:02;25.00;53.40
16402;DHT22;8310;44.626;11.176;2022-08-18T08:22:38;25.10;53.60
16402;DHT22;8310;44.626;11.176;2022-08-18T08:25:12;25.00;53.50
16402;DHT22;8310;44.626;11.176;2022-08-18T08:28:03;25.00;53.60
16402;DHT22;8310;44.626;11.176;2022-08-18T08:30:35;25.00;53.60
16402;DHT22;8310;44.626;11.176;2022-08-18T08:33:19;25.00;53.60
16402;DHT22;8310;44.626;11.176;2022-08-18T08:35:52;25.00;53.70
16402;DHT22;8310;44.626;11.176;2022-08-18T08:38:25;25.10;53.80
16402;DHT22;8310;44.626;11.176;2022-08-18T08:40:58;25.10;53.70
16402;DHT22;8310;44.626;11.176;2022-08-18T08:43:33;25.10;53.80
16402;DHT22;8310;44.626;11.176;2022-08-18T08:46:06;25.10;53.80
16402;DHT22;8310;44.626;11.176;2022-08-18T08:48:39;25.10;53.80
16402;DHT22;8310;44.626;11.176;2022-08-18T08:51:23;25.10;53.80
16402;DHT22;8310;44.626;11.176;2022-08-18T08:53:57;25.00;53.80
16402;DHT22;8310;44.626;11.176;2022-08-18T08:56:29;25.00;53.80
16402;DHT22;8310;44.626;11.176;2022-08-18T08:59:00;24.90;53.60
16402;DHT22;8310;44.626;11.176;2022-08-18T09:01:38;24.80;53.50
16402;DHT22;8310;44.626;11.176;2022-08-18T09:04:19;24.70;53.40
16402;DHT22;8310;44.626;11.176;2022-08-18T09:06:56;24.60;53.90
16402;DHT22;8310;44.626;11.176;2022-08-18T09:09:44;24.50;53.30
16402;DHT22;8310;44.626;11.176;2022-08-18T09:12:23;24.40;53.30
16402;DHT22;8310;44.626;11.176;2022-08-18T09:15:34;24.30;53.40
16402;DHT22;8310;44.626;11.176;2022-08-18T09:18:32;24.30;53.60
16402;DHT22;8310;44.626;11.176;2022-08-18T09:21:19;24.30;53.80
16402;DHT22;8310;44.626;11.176;2022-08-18T09:24:02;24.40;53.90
16402;DHT22;8310;44.626;11.176;2022-08-18T09:26:43;24.40;53.80
16402;DHT22;8310;44.626;11.176;2022-08-18T09:29:16;24.40;53.70
16402;DHT22;8310;44.626;11.176;2022-08-18T09:34:41;24.30;53.60
16402;DHT22;8310;44.626;11.176;2022-08-18T09:37:17;24.20;53.70
16402;DHT22;8310;44.626;11.176;2022-08-18T09:39:56;24.10;53.90
16402;DHT22;8310;44.626;11.176;2022-08-18T09:42:47;24.00;53.70
16402;DHT22;8310;44.626;11.176;2022-08-18T09:45:38;23.90;53.60
16402;DHT22;8310;44.626;11.176;2022-08-18T09:48:29;23.80;53.60
16402;DHT22;8310;44.626;11.176;2022-08-18T09:53:53;23.80;54.00
16402;DHT22;8310;44.626;11.176;2022-08-18T09:59:51;23.90;54.20
16402;DHT22;8310;44.626;11.176;2022-08-18T10:05:37;24.00;54.20
16402;DHT22;8310;44.626;11.176;2022-08-18T10:08:45;24.00;54.00
16402;DHT22;8310;44.626;11.176;2022-08-18T10:11:33;23.90;54.00
16402;DHT22;8310;44.626;11.176;2022-08-18T10:14:29;23.90;54.20
16402;DHT22;8310;44.626;11.176;2022-08-18T10:17:08;23.90;54.20
16402;DHT22;8310;44.626;11.176;2022-08-18T10:19:46;23.90;54.30
16402;DHT22;8310;44.626;11.176;2022-08-18T10:22:35;24.00;54.40
16402;DHT22;8310;44.626;11.176;2022-08-18T10:25:04;24.00;54.50
16402;DHT22;8310;44.626;11.176;2022-08-18T10:27:45;24.00;54.60
16402;DHT22;8310;44.626;11.176;2022-08-18T10:30:45;24.10;54.70
16402;DHT22;8310;44.626;11.176;2022-08-18T10:36:36;24.20;54.60
16402;DHT22;8310;44.626;11.176;2022-08-18T10:39:10;24.30;54.80
16402;DHT22;8310;44.626;11.176;2022-08-18T10:41:52;24.30;54.80
16402;DHT22;8310;44.626;11.176;2022-08-18T10:44:23;24.30;54.80
16402;DHT22;8310;44.626;11.176;2022-08-18T10:46:51;24.40;54.90
16402;DHT22;8310;44.626;11.176;2022-08-18T10:49:27;24.40;54.80
16402;DHT22;8310;44.626;11.176;2022-08-18T10:52:13;24.40;54.80
16402;DHT22;8310;44.626;11.176;2022-08-18T10:58:07;24.40;55.00
16402;DHT22;8310;44.626;11.176;2022-08-18T11:00:47;24.50;55.20
16402;DHT22;8310;44.626;11.176;2022-08-18T11:03:25;24.60;55.40
16402;DHT22;8310;44.626;11.176;2022-08-18T11:06:04;24.70;55.50
16402;DHT22;8310;44.626;11.176;2022-08-18T11:08:40;24.80;55.60
16402;DHT22;8310;44.626;11.176;2022-08-18T11:11:10;24.90;55.70
16402;DHT22;8310;44.626;11.176;2022-08-18T11:13:49;25.10;55.90
16402;DHT22;8310;44.626;11.176;2022-08-18T11:16:32;25.20;56.00
16402;DHT22;8310;44.626;11.176;2022-08-18T11:19:06;25.40;56.20
16402;DHT22;8310;44.626;11.176;2022-08-18T11:21:39;25.50;56.20
16402;DHT22;8310;44.626;11.176;2022-08-18T11:24:11;25.70;56.10
16402;DHT22;8310;44.626;11.176;2022-08-18T11:26:40;25.70;56.10
16402;DHT22;8310;44.626;11.176;2022-08-18T11:29:27;25.80;56.10
16402;DHT22;8310;44.626;11.176;2022-08-18T11:31:59;25.90;56.20
16402;DHT22;8310;44.626;11.176;2022-08-18T11:34:35;26.00;56.30
16402;DHT22;8310;44.626;11.176;2022-08-18T11:37:04;26.10;56.40
16402;DHT22;8310;44.626;11.176;2022-08-18T11:39:32;26.20;56.50
16402;DHT22;8310;44.626;11.176;2022-08-18T11:42:07;26.30;56.50
16402;DHT22;8310;44.626;11.176;2022-08-18T11:44:38;26.40;56.60
16402;DHT22;8310;44.626;11.176;2022-08-18T11:47:13;26.50;56.70
16402;DHT22;8310;44.626;11.176;2022-08-18T11:49:52;26.60;56.70
16402;DHT22;8310;44.626;11.176;2022-08-18T11:52:23;26.80;56.80
16402;DHT22;8310;44.626;11.176;2022-08-18T11:54:51;26.80;56.80
16402;DHT22;8310;44.626;11.176;2022-08-18T11:57:41;26.90;56.80
16402;DHT22;8310;44.626;11.176;2022-08-18T12:03:27;27.20;57.00
16402;DHT22;8310;44.626;11.176;2022-08-18T12:05:57;27.30;57.10
16402;DHT22;8310;44.626;11.176;2022-08-18T12:08:32;27.30;56.90
16402;DHT22;8310;44.626;11.176;2022-08-18T12:11:13;27.40;56.80
16402;DHT22;8310;44.626;11.176;2022-08-18T12:13:44;27.50;57.00
16402;DHT22;8310;44.626;11.176;2022-08-18T12:16:15;27.50;57.10
16402;DHT22;8310;44.626;11.176;2022-08-18T12:18:45;27.60;57.00
16402;DHT22;8310;44.626;11.176;2022-08-18T12:21:13;27.70;57.00
16402;DHT22;8310;44.626;11.176;2022-08-18T12:23:40;27.80;57.20
16402;DHT22;8310;44.626;11.176;2022-08-18T12:26:08;27.90;57.40
16402;DHT22;8310;44.626;11.176;2022-08-18T12:28:36;28.00;57.20
16402;DHT22;8310;44.626;11.176;2022-08-18T12:31:05;28.20;57.40
16402;DHT22;8310;44.626;11.176;2022-08-18T12:33:32;28.20;57.20
16402;DHT22;8310;44.626;11.176;2022-08-18T12:36:02;28.30;57.10
16402;DHT22;8310;44.626;11.176;2022-08-18T12:38:31;28.40;57.40
16402;DHT22;8310;44.626;11.176;2022-08-18T12:40:59;28.50;57.60
16402;DHT22;8310;44.626;11.176;2022-08-18T12:43:27;28.60;57.60
16402;DHT22;8310;44.626;11.176;2022-08-18T12:45:54;28.70;57.70
16402;DHT22;8310;44.626;11.176;2022-08-18T12:48:22;28.80;57.80
16402;DHT22;8310;44.626;11.176;2022-08-18T12:50:50;29.00;57.90
16402;DHT22;8310;44.626;11.176;2022-08-18T12:53:19;29.20;57.90
16402;DHT22;8310;44.626;11.176;2022-08-18T12:55:47;29.30;57.60
16402;DHT22;8310;44.626;11.176;2022-08-18T12:58:14;29.30;57.60
16402;DHT22;8310;44.626;11.176;2022-08-18T13:00:42;29.40;57.80
16402;DHT22;8310;44.626;11.176;2022-08-18T13:03:09;29.50;57.70
16402;DHT22;8310;44.626;11.176;2022-08-18T13:05:36;29.50;57.30
16402;DHT22;8310;44.626;11.176;2022-08-18T13:08:07;29.40;56.70
16402;DHT22;8310;44.626;11.176;2022-08-18T13:10:40;29.30;56.60
16402;DHT22;8310;44.626;11.176;2022-08-18T13:13:08;29.20;56.70
16402;DHT22;8310;44.626;11.176;2022-08-18T13:15:35;29.10;56.70
16402;DHT22;8310;44.626;11.176;2022-08-18T13:18:03;29.10;56.70
16402;DHT22;8310;44.626;11.176;2022-08-18T13:20:30;29.00;56.80
16402;DHT22;8310;44.626;11.176;2022-08-18T13:22:58;29.00;56.80
16402;DHT22;8310;44.626;11.176;2022-08-18T13:25:26;29.00;56.80
16402;DHT22;8310;44.626;11.176;2022-08-18T13:27:55;29.10;56.90
16402;DHT22;8310;44.626;11.176;2022-08-18T13:30:23;29.10;56.90
16402;DHT22;8310;44.626;11.176;2022-08-18T13:32:50;29.10;56.90
16402;DHT22;8310;44.626;11.176;2022-08-18T13:35:18;29.10;57.00
16402;DHT22;8310;44.626;11.176;2022-08-18T13:37:45;29.10;57.20
16402;DHT22;8310;44.626;11.176;2022-08-18T13:40:13;29.20;57.40
16402;DHT22;8310;44.626;11.176;2022-08-18T13:42:42;29.30;57.30
16402;DHT22;8310;44.626;11.176;2022-08-18T13:45:13;29.40;57.30
16402;DHT22;8310;44.626;11.176;2022-08-18T13:47:42;29.40;57.10
16402;DHT22;8310;44.626;11.176;2022-08-18T13:50:11;29.30;56.90
16402;DHT22;8310;44.626;11.176;2022-08-18T13:52:39;29.30;56.80
16402;DHT22;8310;44.626;11.176;2022-08-18T13:55:10;29.20;56.60
16402;DHT22;8310;44.626;11.176;2022-08-18T13:57:39;29.20;56.60
16402;DHT22;8310;44.626;11.176;2022-08-18T14:00:08;29.10;56.50
16402;DHT22;8310;44.626;11.176;2022-08-18T14:02:39;29.00;56.40
16402;DHT22;8310;44.626;11.176;2022-08-18T14:05:07;28.90;56.40
16402;DHT22;8310;44.626;11.176;2022-08-18T14:07:35;28.90;56.50
16402;DHT22;8310;44.626;11.176;2022-08-18T14:10:04;28.90;56.50
16402;DHT22;8310;44.626;11.176;2022-08-18T14:12:35;28.90;56.60
16402;DHT22;8310;44.626;11.176;2022-08-18T14:15:04;28.90;56.50
16402;DHT22;8310;44.626;11.176;2022-08-18T14:17:33;28.90;56.40
16402;DHT22;8310;44.626;11.176;2022-08-18T14:20:04;28.80;56.20
16402;DHT22;8310;44.626;11.176;2022-08-18T14:22:49;28.70;56.10
16402;DHT22;8310;44.626;11.176;2022-08-18T14:25:34;28.60;56.30
16402;DHT22;8310;44.626;11.176;2022-08-18T14:28:18;28.60;56.50
16402;DHT22;8310;44.626;11.176;2022-08-18T14:30:46;28.70;56.90
16402;DHT22;8310;44.626;11.176;2022-08-18T14:33:17;28.80;57.10
16402;DHT22;8310;44.626;11.176;2022-08-18T14:35:47;29.00;57.20
16402;DHT22;8310;44.626;11.176;2022-08-18T14:38:14;29.10;57.20
16402;DHT22;8310;44.626;11.176;2022-08-18T14:40:43;29.20;57.10
16402;DHT22;8310;44.626;11.176;2022-08-18T14:43:12;29.20;57.00
16402;DHT22;8310;44.626;11.176;2022-08-18T14:45:40;29.30;57.00
16402;DHT22;8310;44.626;11.176;2022-08-18T14:48:10;29.30;57.10
16402;DHT22;8310;44.626;11.176;2022-08-18T14:50:39;29.30;56.90
16402;DHT22;8310;44.626;11.176;2022-08-18T14:53:09;29.40;57.00
16402;DHT22;8310;44.626;11.176;2022-08-18T14:55:38;29.40;56.80
16402;DHT22;8310;44.626;11.176;2022-08-18T14:58:05;29.40;56.90
16402;DHT22;8310;44.626;11.176;2022-08-18T15:00:33;29.40;56.80
16402;DHT22;8310;44.626;11.176;2022-08-18T15:03:01;29.40;56.90
16402;DHT22;8310;44.626;11.176;2022-08-18T15:05:30;29.40;56.90
16402;DHT22;8310;44.626;11.176;2022-08-18T15:07:58;29.50;56.90
16402;DHT22;8310;44.626;11.176;2022-08-18T15:10:31;29.50;56.90
16402;DHT22;8310;44.626;11.176;2022-08-18T15:12:58;29.50;56.90
16402;DHT22;8310;44.626;11.176;2022-08-18T15:15:27;29.50;56.80
16402;DHT22;8310;44.626;11.176;2022-08-18T15:17:55;29.60;56.80
16402;DHT22;8310;44.626;11.176;2022-08-18T15:20:24;29.60;56.90
16402;DHT22;8310;44.626;11.176;2022-08-18T15:22:53;29.60;56.90
16402;DHT22;8310;44.626;11.176;2022-08-18T15:25:38;29.60;56.80
16402;DHT22;8310;44.626;11.176;2022-08-18T15:28:10;29.60;56.80
16402;DHT22;8310;44.626;11.176;2022-08-18T15:30:39;29.60;56.90
16402;DHT22;8310;44.626;11.176;2022-08-18T15:33:07;29.70;56.90
16402;DHT22;8310;44.626;11.176;2022-08-18T15:35:35;29.70;56.90
16402;DHT22;8310;44.626;11.176;2022-08-18T15:38:03;29.80;57.00
16402;DHT22;8310;44.626;11.176;2022-08-18T15:40:32;29.80;56.90
16402;DHT22;8310;44.626;11.176;2022-08-18T15:43:05;29.80;56.90
16402;DHT22;8310;44.626;11.176;2022-08-18T15:45:35;29.90;57.00
16402;DHT22;8310;44.626;11.176;2022-08-18T15:48:04;29.90;56.90
16402;DHT22;8310;44.626;11.176;2022-08-18T15:50:32;29.90;56.80
16402;DHT22;8310;44.626;11.176;2022-08-18T15:53:00;29.90;56.70
16402;DHT22;8310;44.626;11.176;2022-08-18T15:55:31;29.90;56.70
16402;DHT22;8310;44.626;11.176;2022-08-18T15:58:02;29.90;56.50
16402;DHT22;8310;44.626;11.176;2022-08-18T16:00:31;29.80;56.20
16402;DHT22;8310;44.626;11.176;2022-08-18T16:03:00;29.70;56.20
16402;DHT22;8310;44.626;11.176;2022-08-18T16:05:31;29.60;56.10
16402;DHT22;8310;44.626;11.176;2022-08-18T16:08:00;29.50;56.20
16402;DHT22;8310;44.626;11.176;2022-08-18T16:10:30;29.50;56.20
16402;DHT22;8310;44.626;11.176;2022-08-18T16:12:58;29.50;56.30
16402;DHT22;8310;44.626;11.176;2022-08-18T16:15:34;29.50;56.20
16402;DHT22;8310;44.626;11.176;2022-08-18T16:18:01;29.40;56.20
16402;DHT22;8310;44.626;11.176;2022-08-18T16:20:28;29.40;56.20
16402;DHT22;8310;44.626;11.176;2022-08-18T16:22:57;29.30;56.00
16402;DHT22;8310;44.626;11.176;2022-08-18T16:25:25;29.30;56.00